Jefferson City, Missouri
Current Conditions -  °F | °C
As of 12:53 AM on Friday 19 Dec 2014 (Local Time) from KJEF Reporting Station
Haze Haze  
Wind Chill: -1°   Ceiling: 800
Heat Index:   Visibility: 6mi
Dew Point: -1°   Wind: 5mph
Humidity: 89%   Direction: 80°E
Pressure: 30.28"   Gusts: NA
Location:  38.58°N, 92.18°W
Report Text: KJEF 190653Z AUTO 08004KT 6SM BR OVC008 01/M01 A3028 RMK AO2 SLP247 T00111006
Loading
Personal Weather Stations






























Interactive Weather Map New forecast layout! Learn more

10-Day Weather Forecast

Advertisements
Track Severe Weather on mobile